Springer, NM (87747)

9:18 AM MDT on August 29, 2015 (GMT -0600)
Raton Municipal-Crews | | Change Station
CLOSE
Current Station
Airport
Location: Raton,
Elevation: 6352 ft
Nearby Weather Stations

Elev 6352 ft 36.74 °N, 104.50 °W | Updated 25 minutes ago

Clear
Clear
68 °F
Feels Like 68 °F
N
7
Wind Variable Wind from ENE

Today
High -- | Low -- °F
--% Chance of Precip.
Yesterday
High -- | Low -- °F
Precip. -- in
6:26 AM 7:29 PM
Full, 100% visible
Pressure 30.12 in
Visibility 10.0 miles
Clouds Clear
Dew Point 47 °F
Humidity 47%
Rainfall 0.00 in
Snow Depth Not available.
UV 3 out of 12
Pollen 10.40 out of 12
Air Quality Not available.
Flu Activity Not available.
METAR KRTN 291453Z AUTO 07006KT 10SM CLR 20/08 A3036 RMK AO2 SLP200 T02000083 51009
Pressure 30.12 in
Visibility 10.0 miles
Clouds Clear
Dew Point 47 °F
Humidity 47%
Rainfall 0.00 in
Snow Depth Not available.
UV 3 out of 12
Pollen 10.40 out of 12
Air Quality Not available.
Flu Activity Not available.
METAR KRTN 291453Z AUTO 07006KT 10SM CLR 20/08 A3036 RMK AO2 SLP200 T02000083 51009

10-Day Weather Forecast

×

Almanac

Astronomy

Aug. 29, 2015 Rise Set
Actual Time
Civil Twilight
Nautical Twilight
Astronomical Twilight
Moon
Length of Visible Light
Length of Day
Tomorrow will be .
, % of the Moon is Illuminated

Today's Extremes

State Highs State Lows

Community

WunderPhotos

Upload Photos

1,850,694 photos uploaded!

WunderBlogs® & News

Nearby

Air Quality

  Air Quality AQ Index Pollutant
Not available.

Snow Depth

Station Depth Elevation

Earthquake Activity

City Distance Mag. Time & Date
Minimum magnitude displayed is 2.5.

Coastal Water Temperatures

Place Temperature

Stations

Nearby Weather Stations

Station Location Temp. Windchill Dew Point Humidity Wind Precip. Elev Updated Type